Time;durP1;ratioP1;P1;durP2;ratioP2;P2;SDS_P1;SDS_P2;PMS_P1;PMS_P2;Temp;Humidity;BMP_temperature;BMP_pressure;BME280_temperature;BME280_humidity;BME280_pressure;Samples;Min_cycle;Max_cycle;Signal;HPM_P1;HPM_P2
2022/11/01 00:00:08;;;;;;;7.20;6.30;;;;;;;-144.22;100.00;60274.75;6250222;28;20223;-63
2022/11/01 00:03:13;;;;;;;8.13;6.37;;;;;;;-144.22;100.00;60274.75;6248524;28;20737;-63
2022/11/01 00:06:15;;;;;;;7.47;6.10;;;;;;;-144.22;100.00;60274.75;6229087;28;20719;-63
2022/11/01 00:09:18;;;;;;;8.40;7.33;;;;;;;-144.22;100.00;60274.75;6233983;28;20661;-63
2022/11/01 00:12:20;;;;;;;7.53;6.40;;;;;;;-144.22;100.00;60274.75;6244362;28;20222;-63
2022/11/01 00:15:22;;;;;;;6.33;5.33;;;;;;;-144.22;100.00;60274.75;6238451;28;20234;-63
2022/11/01 00:18:24;;;;;;;8.27;6.33;;;;;;;-144.22;100.00;60274.75;6243099;28;20225;-64
2022/11/01 00:21:26;;;;;;;8.80;6.57;;;;;;;-144.22;100.00;60274.75;6246259;28;20240;-63
2022/11/01 00:24:32;;;;;;;6.67;6.07;;;;;;;-144.22;100.00;60274.75;6249296;28;20309;-63
2022/11/01 00:27:34;;;;;;;8.10;6.43;;;;;;;-144.22;100.00;60274.75;6224297;28;20238;-63
2022/11/01 00:30:37;;;;;;;9.60;7.10;;;;;;;-144.22;100.00;60274.75;6255328;28;20316;-64
2022/11/01 00:33:39;;;;;;;7.80;6.37;;;;;;;-144.22;100.00;60274.75;6235654;28;20286;-64
2022/11/01 00:36:41;;;;;;;7.53;6.10;;;;;;;-144.22;100.00;60274.75;6242763;28;20317;-63
2022/11/01 00:39:43;;;;;;;7.83;6.77;;;;;;;-144.22;100.00;60274.75;6248766;28;20234;-63
2022/11/01 00:42:45;;;;;;;7.67;6.10;;;;;;;-144.22;100.00;60274.75;6249844;28;20676;-63
2022/11/01 00:45:47;;;;;;;8.27;6.80;;;;;;;-144.22;100.00;60274.75;6240951;28;20602;-64
2022/11/01 00:48:50;;;;;;;9.07;7.17;;;;;;;-144.22;100.00;60274.75;6240291;28;20253;-63
2022/11/01 00:51:52;;;;;;;8.60;6.70;;;;;;;-144.22;100.00;60274.75;6221157;28;20227;-63
2022/11/01 00:54:54;;;;;;;8.33;6.30;;;;;;;-144.22;100.00;60274.75;6220588;28;20250;-63
2022/11/01 00:57:56;;;;;;;7.67;5.83;;;;;;;-144.22;100.00;60274.75;6211744;28;20261;-63
2022/11/01 01:00:58;;;;;;;6.13;5.50;;;;;;;-144.22;100.00;60274.75;6223966;28;20248;-63
2022/11/01 01:04:00;;;;;;;8.23;6.63;;;;;;;-144.22;100.00;60274.75;6230872;28;20231;-64
2022/11/01 01:07:02;;;;;;;8.63;6.90;;;;;;;-144.22;100.00;60274.75;6215458;28;20237;-63
2022/11/01 01:10:06;;;;;;;8.20;6.63;;;;;;;-144.22;100.00;60274.75;6199541;28;20778;-63
2022/11/01 01:13:08;;;;;;;10.77;6.90;;;;;;;-144.22;100.00;60274.75;6227354;28;20248;-63
2022/11/01 01:16:11;;;;;;;7.20;6.07;;;;;;;-144.22;100.00;60274.75;6228972;28;20226;-64
2022/11/01 01:19:13;;;;;;;6.73;6.03;;;;;;;-144.22;100.00;60274.75;6228063;28;20706;-63
2022/11/01 01:22:16;;;;;;;11.33;6.67;;;;;;;-144.22;100.00;60274.75;6221771;28;20239;-63
2022/11/01 01:25:19;;;;;;;10.57;7.23;;;;;;;-144.22;100.00;60274.75;6216989;28;20586;-63
2022/11/01 01:28:21;;;;;;;7.93;6.47;;;;;;;-144.22;100.00;60274.75;6224676;28;20248;-63
2022/11/01 01:31:24;;;;;;;9.03;6.57;;;;;;;-144.22;100.00;60274.75;6222480;28;20229;-63
2022/11/01 01:34:26;;;;;;;7.80;6.20;;;;;;;-144.22;100.00;60274.75;6217917;28;20618;-63
2022/11/01 01:37:28;;;;;;;8.63;5.93;;;;;;;-144.22;100.00;60274.75;6220950;28;20239;-64
2022/11/01 01:40:31;;;;;;;7.70;6.90;;;;;;;-144.22;100.00;60274.75;6217804;28;20231;-63
2022/11/01 01:43:41;;;;;;;6.50;5.70;;;;;;;-144.22;100.00;60274.75;6215351;28;20746;-64
2022/11/01 01:46:42;;;;;;;8.13;6.70;;;;;;;-144.22;100.00;60274.75;6217764;28;20236;-63
2022/11/01 01:49:46;;;;;;;7.37;6.20;;;;;;;-144.22;100.00;60274.75;6225073;28;20586;-63
2022/11/01 01:53:03;;;;;;;7.47;6.40;;;;;;;-144.22;100.00;60274.75;6231686;28;20230;-64
2022/11/01 01:56:14;;;;;;;7.90;7.10;;;;;;;-144.22;100.00;60274.75;6222195;28;20263;-63
2022/11/01 01:59:16;;;;;;;7.87;6.80;;;;;;;-144.22;100.00;60274.75;6221454;28;20222;-63
2022/11/01 02:02:19;;;;;;;9.03;6.77;;;;;;;-144.22;100.00;60274.75;6230116;28;20233;-63
2022/11/01 02:05:25;;;;;;;7.53;6.67;;;;;;;-144.22;100.00;60274.75;6219415;28;20347;-63
2022/11/01 02:08:28;;;;;;;8.10;6.53;;;;;;;-144.22;100.00;60274.75;6229519;28;20308;-63
2022/11/01 02:11:30;;;;;;;6.80;5.57;;;;;;;-144.22;100.00;60274.75;6222483;28;20260;-63
2022/11/01 02:14:32;;;;;;;8.97;7.23;;;;;;;-144.22;100.00;60274.75;6217963;28;20747;-63
2022/11/01 02:18:02;;;;;;;7.90;6.70;;;;;;;-144.22;100.00;60274.75;6218237;28;20230;-63
2022/11/01 02:21:04;;;;;;;9.60;6.83;;;;;;;-144.22;100.00;60274.75;6219578;28;20588;-64
2022/11/01 02:24:18;;;;;;;9.77;7.37;;;;;;;-144.22;100.00;60274.75;6212012;28;20214;-63
2022/11/01 02:27:58;;;;;;;12.80;8.63;;;;;;;-144.22;100.00;60274.75;6219914;28;20213;-62
2022/11/01 02:31:31;;;;;;;15.07;9.00;;;;;;;-144.22;100.00;60274.75;6125299;28;20234;-63
2022/11/01 02:34:45;;;;;;;9.77;7.33;;;;;;;-144.22;100.00;60274.75;6208227;28;20243;-63
2022/11/01 02:37:52;;;;;;;8.53;6.43;;;;;;;-144.22;100.00;60274.75;6214955;28;20231;-63
2022/11/01 02:40:57;;;;;;;8.83;6.97;;;;;;;-144.22;100.00;60274.75;6217866;28;20243;-63
2022/11/01 02:44:03;;;;;;;10.10;7.73;;;;;;;-144.22;100.00;60274.75;6220231;28;20330;-63
2022/11/01 02:47:06;;;;;;;9.53;7.63;;;;;;;-144.22;100.00;60274.75;6223801;28;20410;-63
2022/11/01 02:50:10;;;;;;;9.00;7.50;;;;;;;-144.22;100.00;60274.75;6219511;28;20332;-63
2022/11/01 02:53:12;;;;;;;8.80;7.17;;;;;;;-144.22;100.00;60274.75;6210066;28;20611;-63
2022/11/01 02:56:17;;;;;;;10.57;7.50;;;;;;;-144.22;100.00;60274.75;6223929;28;20723;-63
2022/11/01 02:59:25;;;;;;;7.50;6.63;;;;;;;-144.22;100.00;60274.75;6200077;28;20302;-63
2022/11/01 03:02:41;;;;;;;9.00;7.47;;;;;;;-144.22;100.00;60274.75;6216222;28;20239;-63
2022/11/01 03:05:59;;;;;;;9.37;7.10;;;;;;;-144.22;100.00;60274.75;6219369;28;20314;-63
2022/11/01 03:09:06;;;;;;;8.53;6.47;;;;;;;-144.22;100.00;60274.75;6208256;28;20243;-63
2022/11/01 03:12:19;;;;;;;10.00;7.60;;;;;;;-144.22;100.00;60274.75;6216674;28;20307;-63
2022/11/01 03:15:29;;;;;;;9.37;7.57;;;;;;;-144.22;100.00;60274.75;6217712;28;20603;-64
2022/11/01 03:18:35;;;;;;;8.33;7.13;;;;;;;-144.22;100.00;60274.75;6220769;28;20706;-63
2022/11/01 03:21:48;;;;;;;10.43;7.80;;;;;;;-144.22;100.00;60274.75;6217795;28;21003;-63
2022/11/01 03:28:41;;;;;;;10.20;8.07;;;;;;;-144.22;100.00;60274.75;6217176;28;20244;-63
2022/11/01 03:31:45;;;;;;;10.63;7.17;;;;;;;-144.22;100.00;60274.75;6223317;28;20240;-63
2022/11/01 03:34:47;;;;;;;10.87;7.93;;;;;;;-144.22;100.00;60274.75;6218319;28;20234;-63
2022/11/01 03:37:53;;;;;;;8.37;6.63;;;;;;;-144.22;100.00;60274.75;6207149;28;20600;-63
2022/11/01 03:41:00;;;;;;;7.27;6.47;;;;;;;-144.22;100.00;60274.75;6212281;28;20235;-63
2022/11/01 03:44:03;;;;;;;8.07;6.03;;;;;;;-144.22;100.00;60274.75;6216800;28;20577;-64
2022/11/01 03:47:06;;;;;;;7.87;6.97;;;;;;;-144.22;100.00;60274.75;6222971;28;20240;-63
2022/11/01 03:50:17;;;;;;;7.20;5.87;;;;;;;-144.22;100.00;60274.75;6230034;28;20243;-63
2022/11/01 03:53:19;;;;;;;7.83;6.27;;;;;;;-144.22;100.00;60274.75;6228237;28;20314;-63
2022/11/01 03:56:21;;;;;;;7.13;6.43;;;;;;;-144.22;100.00;60274.75;6228183;28;20601;-63
2022/11/01 03:59:24;;;;;;;10.30;6.63;;;;;;;-144.22;100.00;60274.75;6225094;28;20226;-63
2022/11/01 04:02:26;;;;;;;6.57;5.83;;;;;;;-144.22;100.00;60274.75;6234716;28;20258;-63
2022/11/01 04:05:29;;;;;;;7.73;6.17;;;;;;;-144.22;100.00;60274.75;6216303;28;20232;-63
2022/11/01 04:08:32;;;;;;;11.03;7.47;;;;;;;-144.22;100.00;60274.75;6220016;28;20363;-63
2022/11/01 04:11:34;;;;;;;11.63;6.03;;;;;;;-144.22;100.00;60274.75;6223913;28;20597;-63
2022/11/01 04:21:33;;;;;;;8.53;5.83;;;;;;;-144.22;100.00;60274.75;6209887;28;20238;-63
2022/11/01 04:24:35;;;;;;;6.97;5.90;;;;;;;-144.22;100.00;60274.75;6210517;28;20679;-64
2022/11/01 04:27:37;;;;;;;7.43;6.03;;;;;;;-144.22;100.00;60274.75;6210626;28;20311;-64
2022/11/01 04:30:41;;;;;;;9.13;6.57;;;;;;;-144.22;100.00;60274.75;6213141;28;20227;-63
2022/11/01 04:33:43;;;;;;;6.47;5.70;;;;;;;-144.22;100.00;60274.75;6209044;28;20250;-63
2022/11/01 04:36:45;;;;;;;5.53;4.70;;;;;;;-144.22;100.00;60274.75;6227087;28;20606;-63
2022/11/01 04:39:47;;;;;;;6.23;5.20;;;;;;;-144.22;100.00;60274.75;6225797;28;20236;-63
2022/11/01 04:42:49;;;;;;;5.53;4.90;;;;;;;-144.22;100.00;60274.75;6228327;28;20247;-63
2022/11/01 04:45:57;;;;;;;6.63;5.17;;;;;;;-144.22;100.00;60274.75;6223700;28;20578;-63
2022/11/01 04:48:59;;;;;;;7.00;5.43;;;;;;;-144.22;100.00;60274.75;6219460;28;20234;-64
2022/11/01 04:52:01;;;;;;;7.23;5.10;;;;;;;-144.22;100.00;60274.75;6225101;28;20289;-63
2022/11/01 04:55:03;;;;;;;7.67;5.70;;;;;;;-144.22;100.00;60274.75;6220228;28;20290;-63
2022/11/01 04:58:06;;;;;;;7.77;5.70;;;;;;;-144.22;100.00;60274.75;6227591;28;20712;-63
2022/11/01 05:01:08;;;;;;;5.93;5.00;;;;;;;-144.22;100.00;60274.75;6225945;28;20231;-63
2022/11/01 05:04:10;;;;;;;6.37;5.50;;;;;;;-144.22;100.00;60274.75;6231110;28;20697;-64
2022/11/01 05:07:13;;;;;;;8.53;6.20;;;;;;;-144.22;100.00;60274.75;6222458;28;20733;-64
2022/11/01 05:10:15;;;;;;;6.97;5.63;;;;;;;-144.22;100.00;60274.75;6218265;28;20237;-63
2022/11/01 05:13:17;;;;;;;6.63;5.50;;;;;;;-144.22;100.00;60274.75;6220847;28;20237;-64
2022/11/01 05:16:19;;;;;;;6.77;5.50;;;;;;;-144.22;100.00;60274.75;6230757;28;20246;-64
2022/11/01 05:19:22;;;;;;;6.83;5.27;;;;;;;-144.22;100.00;60274.75;6224925;28;20325;-63
2022/11/01 05:22:24;;;;;;;5.87;5.00;;;;;;;-144.22;100.00;60274.75;6225429;28;20244;-63
2022/11/01 05:25:28;;;;;;;6.90;4.50;;;;;;;-144.22;100.00;60274.75;6221738;28;20244;-64
2022/11/01 05:28:33;;;;;;;6.70;6.00;;;;;;;-144.22;100.00;60274.75;6225288;28;20272;-64
2022/11/01 05:31:36;;;;;;;7.17;4.93;;;;;;;-144.22;100.00;60274.75;6225697;28;20315;-64
2022/11/01 05:34:38;;;;;;;6.33;4.93;;;;;;;-144.22;100.00;60274.75;6217410;28;20218;-63
2022/11/01 05:37:40;;;;;;;5.87;5.27;;;;;;;-144.22;100.00;60274.75;6216268;28;20241;-63
2022/11/01 05:40:42;;;;;;;5.97;4.80;;;;;;;-144.22;100.00;60274.75;6233364;28;20256;-64
2022/11/01 05:43:44;;;;;;;6.93;5.23;;;;;;;-144.22;100.00;60274.75;6220668;28;20229;-64
2022/11/01 05:46:46;;;;;;;8.30;5.90;;;;;;;-144.22;100.00;60274.75;6217434;28;20731;-64
2022/11/01 05:49:48;;;;;;;6.53;5.63;;;;;;;-144.22;100.00;60274.75;6224755;28;20231;-63
2022/11/01 05:52:50;;;;;;;4.70;4.20;;;;;;;-144.22;100.00;60274.75;6226708;28;20722;-63
2022/11/01 05:55:55;;;;;;;4.63;4.07;;;;;;;-144.22;100.00;60274.75;6220042;28;20320;-63
2022/11/01 05:58:57;;;;;;;5.97;4.53;;;;;;;-144.22;100.00;60274.75;6221691;28;20214;-65
2022/11/01 06:01:59;;;;;;;5.77;5.00;;;;;;;-144.22;100.00;60274.75;6230269;28;20394;-63
2022/11/01 06:05:01;;;;;;;7.17;5.67;;;;;;;-144.22;100.00;60274.75;6215987;28;20317;-64
2022/11/01 06:08:05;;;;;;;5.97;5.10;;;;;;;-144.22;100.00;60274.75;6212860;28;20238;-63
2022/11/01 06:11:07;;;;;;;5.63;4.70;;;;;;;-144.22;100.00;60274.75;6216024;28;20366;-64
2022/11/01 06:14:09;;;;;;;7.60;5.17;;;;;;;-144.22;100.00;60274.75;6228213;28;20236;-63
2022/11/01 06:17:12;;;;;;;5.77;4.50;;;;;;;-144.22;100.00;60274.75;6216193;28;20852;-63
2022/11/01 06:20:14;;;;;;;6.10;5.47;;;;;;;-144.22;100.00;60274.75;6218983;28;20233;-63
2022/11/01 06:23:16;;;;;;;6.77;5.10;;;;;;;-144.22;100.00;60274.75;6226758;28;20241;-64
2022/11/01 06:26:18;;;;;;;6.07;5.30;;;;;;;-144.22;100.00;60274.75;6232766;28;20733;-63
2022/11/01 06:29:20;;;;;;;6.40;5.43;;;;;;;-144.22;100.00;60274.75;6228667;28;20247;-63
2022/11/01 06:32:22;;;;;;;7.53;6.07;;;;;;;-144.22;100.00;60274.75;6229434;28;20699;-64
2022/11/01 06:35:26;;;;;;;6.73;5.77;;;;;;;-144.22;100.00;60274.75;6230092;28;20373;-64
2022/11/01 06:38:28;;;;;;;6.80;5.13;;;;;;;-144.22;100.00;60274.75;6229278;28;20242;-64
2022/11/01 06:41:31;;;;;;;7.50;4.57;;;;;;;-144.22;100.00;60274.75;6226598;28;20232;-65
2022/11/01 06:44:33;;;;;;;5.93;5.30;;;;;;;-144.22;100.00;60274.75;6229512;28;20691;-64
2022/11/01 06:47:35;;;;;;;6.83;5.77;;;;;;;-144.22;100.00;60274.75;6228625;28;20545;-64
2022/11/01 06:50:42;;;;;;;6.80;5.47;;;;;;;-144.22;100.00;60274.75;6228927;28;20246;-64
2022/11/01 06:53:44;;;;;;;5.83;5.10;;;;;;;-144.22;100.00;60274.75;6225839;28;20598;-64
2022/11/01 06:56:46;;;;;;;7.47;6.30;;;;;;;-144.22;100.00;60274.75;6223497;28;20285;-64
2022/11/01 06:59:48;;;;;;;5.33;4.83;;;;;;;-144.22;100.00;60274.75;6226556;28;20622;-64
2022/11/01 07:03:01;;;;;;;6.33;5.27;;;;;;;-144.22;100.00;60274.75;6231504;28;20399;-64
2022/11/01 07:06:03;;;;;;;6.90;5.23;;;;;;;-144.22;100.00;60274.75;6225438;28;20234;-64
2022/11/01 07:09:05;;;;;;;5.63;4.87;;;;;;;-144.22;100.00;60274.75;6224130;28;20377;-64
2022/11/01 07:12:07;;;;;;;5.80;4.97;;;;;;;-144.22;100.00;60274.75;6228060;28;20233;-64
2022/11/01 07:15:10;;;;;;;6.23;4.87;;;;;;;-144.22;100.00;60274.75;6229115;28;20613;-64
2022/11/01 07:18:12;;;;;;;7.73;5.93;;;;;;;-144.22;100.00;60274.75;6226893;28;20592;-64
2022/11/01 07:21:14;;;;;;;7.17;5.87;;;;;;;-144.22;100.00;60274.75;6224521;28;20212;-64
2022/11/01 07:24:16;;;;;;;7.23;5.63;;;;;;;-144.22;100.00;60274.75;6227668;28;20319;-63
2022/11/01 07:27:18;;;;;;;6.37;5.30;;;;;;;-144.22;100.00;60274.75;6229317;28;20308;-63
2022/11/01 07:30:21;;;;;;;6.00;5.13;;;;;;;-144.22;100.00;60274.75;6227049;28;20923;-64
2022/11/01 07:33:23;;;;;;;7.00;5.57;;;;;;;-144.22;100.00;60274.75;6224867;28;20233;-64
2022/11/01 07:36:25;;;;;;;6.17;5.10;;;;;;;-144.22;100.00;60274.75;6228050;28;20604;-65
2022/11/01 07:39:27;;;;;;;6.33;5.13;;;;;;;-144.22;100.00;60274.75;6227569;28;20660;-63
2022/11/01 07:42:29;;;;;;;6.00;4.90;;;;;;;-144.22;100.00;60274.75;6226054;28;20236;-64
2022/11/01 07:45:34;;;;;;;7.07;5.27;;;;;;;-144.22;100.00;60274.75;6225086;28;20287;-64
2022/11/01 07:48:36;;;;;;;5.40;4.63;;;;;;;-144.22;100.00;60274.75;6231146;28;20826;-63
2022/11/01 07:51:38;;;;;;;5.47;4.87;;;;;;;-144.22;100.00;60274.75;6227670;28;20235;-64
2022/11/01 07:54:40;;;;;;;7.03;5.27;;;;;;;-144.22;100.00;60274.75;6227423;28;20279;-63
2022/11/01 07:57:42;;;;;;;6.37;5.30;;;;;;;-144.22;100.00;60274.75;6227330;28;20238;-64
2022/11/01 08:00:44;;;;;;;6.90;5.00;;;;;;;-144.22;100.00;60274.75;6226171;28;20241;-65
2022/11/01 08:03:48;;;;;;;5.67;5.07;;;;;;;-144.22;100.00;60274.75;6228505;28;20326;-64
2022/11/01 08:06:50;;;;;;;5.53;4.90;;;;;;;-144.22;100.00;60274.75;6228105;28;20245;-64
2022/11/01 08:09:53;;;;;;;6.07;4.90;;;;;;;-144.22;100.00;60274.75;6223166;28;20269;-64
2022/11/01 08:13:06;;;;;;;5.73;4.60;;;;;;;-144.22;100.00;60274.75;6223880;28;20786;-64
2022/11/01 08:16:08;;;;;;;7.00;4.63;;;;;;;-144.22;100.00;60274.75;6225253;28;20233;-64
2022/11/01 08:19:11;;;;;;;5.37;4.10;;;;;;;-144.22;100.00;60274.75;6224729;28;20259;-65
2022/11/01 08:22:13;;;;;;;5.63;4.77;;;;;;;-144.22;100.00;60274.75;6227286;28;20246;-64
2022/11/01 08:25:15;;;;;;;5.63;4.83;;;;;;;-144.22;100.00;60274.75;6230194;28;20307;-64
2022/11/01 08:28:19;;;;;;;4.80;4.03;;;;;;;-144.22;100.00;60274.75;6226188;28;20253;-64
2022/11/01 08:31:21;;;;;;;3.20;2.90;;;;;;;-144.22;100.00;60274.75;6227102;28;20726;-65
2022/11/01 08:34:23;;;;;;;6.00;3.87;;;;;;;-144.22;100.00;60274.75;6225367;28;20266;-63
2022/11/01 08:37:25;;;;;;;5.17;4.50;;;;;;;-144.22;100.00;60274.75;6230450;28;20225;-63
2022/11/01 08:40:27;;;;;;;4.57;4.10;;;;;;;-144.22;100.00;60274.75;6233302;28;20316;-64
2022/11/01 08:43:29;;;;;;;5.20;3.87;;;;;;;-144.22;100.00;60274.75;6230409;28;20633;-64
2022/11/01 08:46:31;;;;;;;5.00;4.37;;;;;;;-144.22;100.00;60274.75;6229056;28;20779;-64
2022/11/01 08:49:33;;;;;;;5.30;3.90;;;;;;;-144.22;100.00;60274.75;6229739;28;20247;-64
2022/11/01 08:52:36;;;;;;;5.50;4.20;;;;;;;-144.22;100.00;60274.75;6249371;28;20258;-66
2022/11/01 08:55:40;;;;;;;5.80;4.60;;;;;;;-144.22;100.00;60274.75;6235897;28;20287;-66
2022/11/01 08:58:42;;;;;;;4.73;3.60;;;;;;;-144.22;100.00;60274.75;6248544;28;20238;-64
2022/11/01 09:01:44;;;;;;;3.37;3.07;;;;;;;-144.22;100.00;60274.75;6250880;28;20239;-64
2022/11/01 09:04:46;;;;;;;4.50;3.30;;;;;;;-144.22;100.00;60274.75;6237953;28;20227;-65
2022/11/01 09:07:54;;;;;;;3.73;3.37;;;;;;;-144.22;100.00;60274.75;6250977;28;20268;-63
2022/11/01 09:10:57;;;;;;;5.23;3.77;;;;;;;-144.22;100.00;60274.75;6250989;28;20245;-64
2022/11/01 09:14:00;;;;;;;3.80;3.30;;;;;;;-144.22;100.00;60274.75;6251348;28;20291;-65
2022/11/01 09:17:02;;;;;;;4.10;3.70;;;;;;;-144.22;100.00;60274.75;6224877;28;20319;-65
2022/11/01 09:20:04;;;;;;;3.77;3.37;;;;;;;-144.22;100.00;60274.75;6221909;28;20238;-64
2022/11/01 09:23:06;;;;;;;3.90;3.57;;;;;;;-144.22;100.00;60274.75;6224164;28;20241;-65
2022/11/01 09:26:10;;;;;;;5.43;4.30;;;;;;;-144.22;100.00;60274.75;6242774;28;20237;-65
2022/11/01 09:29:12;;;;;;;4.03;3.30;;;;;;;-144.22;100.00;60274.75;6224947;28;20622;-65
2022/11/01 09:32:14;;;;;;;4.33;3.93;;;;;;;-144.22;100.00;60274.75;6244404;28;20894;-64
2022/11/01 09:35:19;;;;;;;4.00;3.30;;;;;;;-144.22;100.00;60274.75;6241897;28;20248;-66
2022/11/01 09:38:22;;;;;;;6.03;3.60;;;;;;;-144.22;100.00;60274.75;6225988;28;20242;-64
2022/11/01 09:41:31;;;;;;;3.93;3.00;;;;;;;-144.22;100.00;60274.75;6241475;28;20274;-64
2022/11/01 09:44:39;;;;;;;3.30;3.00;;;;;;;-144.22;100.00;60274.75;6240360;28;20255;-63
2022/11/01 09:47:45;;;;;;;3.50;3.20;;;;;;;-144.22;100.00;60274.75;6223071;28;20247;-65
2022/11/01 09:50:47;;;;;;;3.33;3.03;;;;;;;-144.22;100.00;60274.75;6241612;28;20726;-65
2022/11/01 09:53:55;;;;;;;3.20;2.80;;;;;;;-144.22;100.00;60274.75;6238921;28;20383;-63
2022/11/01 09:57:13;;;;;;;2.63;2.43;;;;;;;-144.22;100.00;60274.75;6225865;28;20309;-64
2022/11/01 10:00:18;;;;;;;3.47;2.83;;;;;;;-144.22;100.00;60274.75;6239505;28;20232;-63
2022/11/01 10:03:32;;;;;;;3.17;2.83;;;;;;;-144.22;100.00;60274.75;6229220;28;20212;-64
2022/11/01 10:06:54;;;;;;;2.93;2.63;;;;;;;-144.22;100.00;60274.75;6238990;28;20231;-64
2022/11/01 10:10:26;;;;;;;4.17;3.00;;;;;;;-144.22;100.00;60274.75;6234871;28;20384;-64
2022/11/01 10:13:50;;;;;;;4.57;3.23;;;;;;;-144.22;100.00;60274.75;6231828;28;20923;-64
2022/11/01 10:17:12;;;;;;;3.43;3.07;;;;;;;-144.22;100.00;60274.75;6220719;28;20238;-63
2022/11/01 10:20:14;;;;;;;3.73;3.33;;;;;;;-144.22;100.00;60274.75;6236807;28;20223;-63
2022/11/01 10:23:21;;;;;;;5.20;3.00;;;;;;;-144.22;100.00;60274.75;6228878;28;20711;-63
2022/11/01 10:26:29;;;;;;;3.60;3.27;;;;;;;-144.22;100.00;60274.75;6246037;28;20342;-64
2022/11/01 10:29:47;;;;;;;3.47;3.17;;;;;;;-144.22;100.00;60274.75;6229300;28;20332;-63
2022/11/01 10:32:51;;;;;;;3.20;2.90;;;;;;;-144.22;100.00;60274.75;6238562;28;20357;-64
2022/11/01 10:36:04;;;;;;;3.40;2.67;;;;;;;-144.22;100.00;60274.75;6234573;28;20737;-63
2022/11/01 10:39:31;;;;;;;3.63;3.27;;;;;;;-144.22;100.00;60274.75;6244922;28;20251;-64
2022/11/01 10:42:53;;;;;;;6.03;2.80;;;;;;;-144.22;100.00;60274.75;6214987;28;20247;-64
2022/11/01 10:45:57;;;;;;;3.33;2.90;;;;;;;-144.22;100.00;60274.75;6227140;28;20235;-64
2022/11/01 10:49:04;;;;;;;2.90;2.50;;;;;;;-144.22;100.00;60274.75;6249206;28;20231;-64
2022/11/01 10:52:10;;;;;;;3.20;2.90;;;;;;;-144.22;100.00;60274.75;6240701;28;20385;-64
2022/11/01 10:55:18;;;;;;;5.20;3.23;;;;;;;-144.22;100.00;60274.75;6241550;28;20223;-63
2022/11/01 10:58:36;;;;;;;3.90;3.13;;;;;;;-144.22;100.00;60274.75;6248492;28;20266;-63
2022/11/01 11:01:43;;;;;;;3.10;2.50;;;;;;;-144.22;100.00;60274.75;6247088;28;20239;-63
2022/11/01 11:04:45;;;;;;;3.43;2.80;;;;;;;-144.22;100.00;60274.75;6242614;28;20253;-64
2022/11/01 11:07:47;;;;;;;2.83;2.47;;;;;;;-144.22;100.00;60274.75;6245847;28;20248;-63
2022/11/01 11:10:50;;;;;;;2.47;2.27;;;;;;;-144.22;100.00;60274.75;6234898;28;20246;-64
2022/11/01 11:13:54;;;;;;;3.23;2.47;;;;;;;-144.22;100.00;60274.75;6208843;28;20246;-63
2022/11/01 11:16:56;;;;;;;3.27;2.60;;;;;;;-144.22;100.00;60274.75;6220341;28;20301;-64
2022/11/01 11:20:09;;;;;;;3.30;2.50;;;;;;;-144.22;100.00;60274.75;6235335;28;20231;-64
2022/11/01 11:23:11;;;;;;;3.03;2.47;;;;;;;-144.22;100.00;60274.75;6233062;28;20254;-63
2022/11/01 11:26:18;;;;;;;3.53;2.90;;;;;;;-144.22;100.00;60274.75;6246785;28;20383;-63
2022/11/01 11:29:33;;;;;;;3.33;2.93;;;;;;;-144.22;100.00;60274.75;6225800;28;20247;-63
2022/11/01 11:32:40;;;;;;;2.50;2.30;;;;;;;-144.22;100.00;60274.75;6243562;28;20314;-64
2022/11/01 11:35:54;;;;;;;3.10;2.80;;;;;;;-144.22;100.00;60274.75;6242583;28;20702;-65
2022/11/01 11:38:57;;;;;;;3.43;2.57;;;;;;;-144.22;100.00;60274.75;6240374;28;20274;-64
2022/11/01 11:42:18;;;;;;;3.10;2.53;;;;;;;-144.22;100.00;60274.75;6236108;28;20239;-65
2022/11/01 11:45:24;;;;;;;6.93;3.07;;;;;;;-144.22;100.00;60274.75;6248776;28;21816;-63
2022/11/01 11:48:26;;;;;;;2.87;2.67;;;;;;;-144.22;100.00;60274.75;6244300;28;20224;-63
2022/11/01 11:51:31;;;;;;;3.23;2.23;;;;;;;-144.22;100.00;60274.75;6229151;28;20227;-64
2022/11/01 11:54:36;;;;;;;3.47;3.17;;;;;;;-144.22;100.00;60274.75;6231737;28;20261;-64
2022/11/01 11:57:38;;;;;;;4.43;2.90;;;;;;;-144.22;100.00;60274.75;6240671;28;20272;-63
2022/11/01 12:00:45;;;;;;;2.73;2.40;;;;;;;-144.22;100.00;60274.75;6223983;28;20227;-63
2022/11/01 12:03:55;;;;;;;3.57;2.80;;;;;;;-144.22;100.00;60274.75;6245889;28;20314;-63
2022/11/01 12:06:57;;;;;;;3.87;3.00;;;;;;;-144.22;100.00;60274.75;6243854;28;20559;-64
2022/11/01 12:10:02;;;;;;;4.30;3.03;;;;;;;-144.22;100.00;60274.75;6240313;28;20236;-64
2022/11/01 12:13:30;;;;;;;4.13;2.87;;;;;;;-144.22;100.00;60274.75;6242215;28;20707;-64
2022/11/01 12:16:40;;;;;;;4.50;3.10;;;;;;;-144.22;100.00;60274.75;6249828;28;20227;-64
2022/11/01 12:19:42;;;;;;;3.30;2.80;;;;;;;-144.22;100.00;60274.75;6239228;28;20227;-64
2022/11/01 12:23:09;;;;;;;5.13;2.67;;;;;;;-144.22;100.00;60274.75;6246836;28;20283;-64
2022/11/01 12:26:16;;;;;;;3.60;2.90;;;;;;;-144.22;100.00;60274.75;6248599;28;20242;-67
2022/11/01 12:29:24;;;;;;;2.90;2.70;;;;;;;-144.22;100.00;60274.75;6247726;28;20226;-64
2022/11/01 12:32:32;;;;;;;2.97;2.60;;;;;;;-144.22;100.00;60274.75;6243306;28;20238;-64
2022/11/01 12:35:43;;;;;;;4.20;2.70;;;;;;;-144.22;100.00;60274.75;6246332;28;20237;-63
2022/11/01 12:38:54;;;;;;;4.30;3.00;;;;;;;-144.22;100.00;60274.75;6229356;28;20604;-64
2022/11/01 12:41:59;;;;;;;3.87;2.50;;;;;;;-144.22;100.00;60274.75;6241880;28;20242;-64
2022/11/01 12:45:12;;;;;;;3.23;2.70;;;;;;;-144.22;100.00;60274.75;6253382;28;20227;-67
2022/11/01 12:48:27;;;;;;;4.57;3.20;;;;;;;-144.22;100.00;60274.75;6234583;28;20220;-63
2022/11/01 12:51:36;;;;;;;5.17;3.53;;;;;;;-144.22;100.00;60274.75;6228884;28;20704;-63
2022/11/01 12:54:45;;;;;;;6.30;3.33;;;;;;;-144.22;100.00;60274.75;6225000;28;20310;-64
2022/11/01 12:57:48;;;;;;;5.00;4.10;;;;;;;-144.22;100.00;60274.75;6250149;28;20245;-63
2022/11/01 13:01:08;;;;;;;6.10;3.50;;;;;;;-144.22;100.00;60274.75;6239924;28;20711;-64
2022/11/01 13:04:21;;;;;;;3.67;3.30;;;;;;;-144.22;100.00;60274.75;6246342;28;20618;-63
2022/11/01 13:07:48;;;;;;;8.43;3.97;;;;;;;-144.22;100.00;60274.75;6236849;28;20254;-64
2022/11/01 13:10:51;;;;;;;5.97;4.13;;;;;;;-144.22;100.00;60274.75;6229689;28;20799;-64
2022/11/01 13:14:23;;;;;;;6.23;3.57;;;;;;;-144.22;100.00;60274.75;6229079;28;20239;-64
2022/11/01 13:17:34;;;;;;;3.37;3.07;;;;;;;-144.22;100.00;60274.75;6249813;28;20361;-63
2022/11/01 13:20:48;;;;;;;4.77;4.10;;;;;;;14.39;79.85;98834.41;6250117;28;20376;-64
2022/11/01 13:24:12;;;;;;;5.83;3.70;;;;;;;-144.22;100.00;60274.75;6244848;28;20292;-63
2022/11/01 13:27:25;;;;;;;8.53;4.63;;;;;;;18.42;100.00;60274.75;6231339;28;20791;-64
2022/11/01 13:30:28;;;;;;;4.50;4.07;;;;;;;-144.22;100.00;60274.75;6239813;28;20544;-63
2022/11/01 13:33:54;;;;;;;4.93;4.17;;;;;;;-144.22;100.00;60274.75;6240461;28;20587;-63
2022/11/01 13:37:12;;;;;;;7.33;5.20;;;;;;;-144.22;100.00;60274.75;6211844;28;20226;-63
2022/11/01 13:40:31;;;;;;;6.03;4.03;;;;;;;-144.22;100.00;60274.75;6205912;28;20315;-64
2022/11/01 13:43:42;;;;;;;7.17;4.37;;;;;;;-144.22;100.00;60274.75;6245784;28;20236;-63
2022/11/01 13:47:22;;;;;;;6.07;3.93;;;;;;;-144.22;100.00;60274.75;6257403;28;20242;-63
2022/11/01 13:50:43;;;;;;;6.07;4.67;;;;;;;-144.22;100.00;60274.75;6221627;28;20319;-64
2022/11/01 13:54:00;;;;;;;5.70;4.30;;;;;;;-144.22;100.00;60274.75;6232743;28;20233;-64
2022/11/01 13:57:17;;;;;;;4.70;3.93;;;;;;;-144.22;100.00;60274.75;6246448;28;20232;-63
2022/11/01 14:00:36;;;;;;;5.10;4.00;;;;;;;-144.22;100.00;60274.75;6238324;28;20227;-63
2022/11/01 14:03:38;;;;;;;5.10;4.30;;;;;;;-144.22;100.00;60274.75;6240152;28;20599;-63
2022/11/01 14:06:42;;;;;;;5.17;4.47;;;;;;;-144.22;100.00;60274.75;6244848;28;20321;-63
2022/11/01 14:09:49;;;;;;;6.13;4.50;;;;;;;-144.22;100.00;60274.75;6253818;28;20640;-64
2022/11/01 14:13:06;;;;;;;4.87;4.30;;;;;;;-144.22;100.00;60274.75;6224157;28;20232;-64
2022/11/01 14:16:14;;;;;;;4.47;3.87;;;;;;;-144.22;100.00;60274.75;6244463;28;20231;-64